Time;durP1;ratioP1;P1;durP2;ratioP2;P2;SDS_P1;SDS_P2;PMS_P1;PMS_P2;Temp;Humidity;BMP_temperature;BMP_pressure;BME280_temperature;BME280_humidity;BME280_pressure;Samples;Min_cycle;Max_cycle;Signal;HPM_P1;HPM_P2
2023/06/11 00:00:41;;;;;;;13.38;7.60;;;21.10;94.90;;;;;;5101485;28;20841;-78
2023/06/11 00:03:08;;;;;;;15.00;9.73;;;21.00;94.80;;;;;;5102373;28;20602;-78
2023/06/11 00:05:35;;;;;;;13.50;7.90;;;21.00;94.90;;;;;;5104765;28;20298;-79
2023/06/11 00:08:02;;;;;;;10.10;7.95;;;20.90;95.20;;;;;;5094988;28;20281;-80
2023/06/11 00:10:29;;;;;;;11.90;8.60;;;20.90;95.50;;;;;;5088385;28;20248;-79
2023/06/11 00:12:56;;;;;;;9.68;7.25;;;20.80;95.70;;;;;;5100606;28;20632;-81
2023/06/11 00:15:24;;;;;;;11.13;8.13;;;20.80;96.40;;;;;;5098339;28;20199;-79
2023/06/11 00:17:50;;;;;;;12.15;8.48;;;20.70;96.20;;;;;;5099632;28;20215;-78
2023/06/11 00:20:17;;;;;;;12.73;8.50;;;20.60;96.30;;;;;;5066444;28;20310;-79
2023/06/11 00:22:44;;;;;;;13.82;8.75;;;20.50;96.50;;;;;;5100517;28;20191;-79
2023/06/11 00:25:11;;;;;;;14.32;9.50;;;20.50;96.70;;;;;;5099559;28;20200;-79
2023/06/11 00:27:38;;;;;;;12.32;8.88;;;20.50;96.90;;;;;;5095135;28;20203;-79
2023/06/11 00:30:06;;;;;;;13.00;9.27;;;20.50;97.00;;;;;;5099965;28;20199;-80
2023/06/11 00:32:35;;;;;;;11.00;8.77;;;20.40;97.20;;;;;;5094301;28;20251;-80
2023/06/11 00:35:07;;;;;;;11.30;9.02;;;20.30;97.50;;;;;;5100114;28;20246;-80
2023/06/11 00:37:35;;;;;;;11.88;8.25;;;20.30;97.70;;;;;;5095852;28;20200;-79
2023/06/11 00:40:04;;;;;;;13.75;8.40;;;20.20;98.10;;;;;;5082943;28;21305;-81
2023/06/11 00:42:33;;;;;;;13.80;8.93;;;20.20;98.60;;;;;;5097439;28;20261;-78
2023/06/11 00:45:03;;;;;;;13.85;8.77;;;20.10;99.00;;;;;;5096262;28;20233;-79
2023/06/11 00:47:31;;;;;;;12.27;8.55;;;20.00;99.40;;;;;;5078870;28;20723;-80
2023/06/11 00:49:59;;;;;;;12.68;9.00;;;19.90;99.90;;;;;;5097036;28;20290;-79
2023/06/11 00:52:26;;;;;;;13.02;8.20;;;19.90;99.90;;;;;;5101957;28;20684;-79
2023/06/11 00:54:54;;;;;;;11.48;8.10;;;19.80;99.90;;;;;;5100840;28;20616;-80
2023/06/11 00:57:25;;;;;;;10.07;8.73;;;19.80;99.90;;;;;;5107301;28;20192;-79
2023/06/11 00:59:54;;;;;;;10.38;7.90;;;19.70;99.90;;;;;;5105770;28;20258;-79
2023/06/11 01:02:33;;;;;;;14.75;8.38;;;19.70;99.90;;;;;;5099388;28;20224;-79
2023/06/11 01:05:03;;;;;;;12.10;8.48;;;19.60;99.90;;;;;;5101737;28;20212;-80
2023/06/11 01:07:41;;;;;;;11.63;8.68;;;19.60;99.90;;;;;;5107109;28;20706;-78
2023/06/11 01:10:08;;;;;;;11.15;8.65;;;19.50;99.90;;;;;;5102897;28;20195;-78
2023/06/11 01:12:35;;;;;;;9.38;8.00;;;19.50;99.90;;;;;;5108399;28;20272;-80
2023/06/11 01:15:02;;;;;;;12.95;9.13;;;19.40;99.90;;;;;;5102054;28;20200;-78
2023/06/11 01:18:11;;;;;;;10.43;8.23;;;19.40;99.90;;;;;;5103362;28;20687;-78
2023/06/11 01:20:55;;;;;;;14.77;8.95;;;19.30;99.90;;;;;;5063242;28;20730;-78
2023/06/11 01:23:46;;;;;;;12.85;8.10;;;19.30;99.90;;;;;;5103818;28;20242;-79
2023/06/11 01:26:30;;;;;;;12.60;8.90;;;19.20;99.90;;;;;;5100001;28;20219;-79
2023/06/11 01:28:59;;;;;;;10.88;8.10;;;19.20;99.90;;;;;;5104512;28;20199;-78
2023/06/11 01:31:31;;;;;;;11.98;8.05;;;19.10;99.90;;;;;;5103901;28;20590;-81
2023/06/11 01:33:58;;;;;;;10.35;8.02;;;19.10;99.90;;;;;;5100621;28;20215;-80
2023/06/11 01:36:28;;;;;;;14.07;8.52;;;19.10;99.90;;;;;;5106537;28;20204;-78
2023/06/11 01:38:58;;;;;;;12.55;8.50;;;19.00;99.90;;;;;;5102884;28;20187;-78
2023/06/11 01:41:27;;;;;;;11.20;7.80;;;18.90;99.90;;;;;;5100114;28;20277;-79
2023/06/11 01:43:54;;;;;;;10.80;8.30;;;18.90;99.90;;;;;;5102392;28;20223;-76
2023/06/11 01:46:21;;;;;;;12.85;8.35;;;19.10;99.90;;;;;;5099996;28;20664;-79
2023/06/11 01:48:48;;;;;;;13.93;8.85;;;18.80;99.90;;;;;;5098150;28;20202;-79
2023/06/11 01:51:15;;;;;;;13.27;8.55;;;18.80;99.90;;;;;;5098743;28;20257;-80
2023/06/11 01:53:42;;;;;;;11.57;8.27;;;19.50;99.90;;;;;;5097753;28;20208;-80
2023/06/11 01:56:10;;;;;;;14.82;9.63;;;19.00;99.90;;;;;;5102944;28;20211;-80
2023/06/11 01:58:37;;;;;;;13.80;9.33;;;19.10;99.90;;;;;;5100046;28;20241;-80
2023/06/11 02:01:04;;;;;;;12.17;9.33;;;18.70;99.90;;;;;;5087936;28;20223;-80
2023/06/11 02:03:31;;;;;;;10.75;8.23;;;18.80;99.90;;;;;;5102307;28;20288;-79
2023/06/11 02:05:58;;;;;;;14.80;9.03;;;18.70;99.90;;;;;;5087775;28;20563;-79
2023/06/11 02:08:26;;;;;;;12.03;9.37;;;18.60;99.90;;;;;;5096574;28;20608;-79
2023/06/11 02:10:53;;;;;;;12.43;9.33;;;18.60;99.90;;;;;;5084093;28;20199;-79
2023/06/11 02:13:20;;;;;;;12.70;9.13;;;18.50;99.90;;;;;;5099017;28;20223;-80
2023/06/11 02:15:47;;;;;;;12.15;9.00;;;18.50;99.90;;;;;;5102926;28;20199;-80
2023/06/11 02:18:14;;;;;;;10.95;8.05;;;18.40;99.90;;;;;;5103415;28;20744;-79
2023/06/11 02:20:40;;;;;;;14.10;9.50;;;18.40;99.90;;;;;;5099777;28;20230;-79
2023/06/11 02:23:07;;;;;;;13.20;9.33;;;18.30;99.90;;;;;;5103069;28;20660;-79
2023/06/11 02:25:34;;;;;;;13.77;8.70;;;18.30;99.90;;;;;;5100071;28;20200;-81
2023/06/11 02:28:02;;;;;;;10.23;8.20;;;18.30;99.90;;;;;;5098826;28;20200;-80
2023/06/11 02:30:28;;;;;;;11.67;8.87;;;18.20;99.90;;;;;;5099963;28;20556;-79
2023/06/11 02:32:55;;;;;;;12.40;9.20;;;18.20;99.90;;;;;;5083207;28;20223;-82
2023/06/11 02:35:22;;;;;;;14.07;8.87;;;19.40;99.90;;;;;;5098782;28;20660;-81
2023/06/11 02:37:49;;;;;;;13.07;8.97;;;18.10;99.90;;;;;;5097546;28;20204;-80
2023/06/11 02:40:16;;;;;;;13.83;8.93;;;18.10;99.90;;;;;;5099797;28;20251;-80
2023/06/11 02:42:43;;;;;;;13.27;9.37;;;18.10;99.90;;;;;;5098738;28;20495;-80
2023/06/11 02:45:10;;;;;;;12.53;9.30;;;18.30;99.90;;;;;;5097608;28;20203;-79
2023/06/11 02:47:37;;;;;;;12.43;9.23;;;18.00;99.90;;;;;;5096184;28;20218;-81
2023/06/11 02:50:04;;;;;;;12.40;9.53;;;17.90;99.90;;;;;;5104470;28;20300;-81
2023/06/11 02:52:31;;;;;;;11.53;9.47;;;17.90;99.90;;;;;;5102827;28;20195;-79
2023/06/11 02:54:58;;;;;;;14.57;9.03;;;17.90;99.90;;;;;;5076425;28;20269;-78
2023/06/11 02:57:24;;;;;;;11.83;8.60;;;17.90;99.90;;;;;;5108688;28;20191;-79
2023/06/11 02:59:51;;;;;;;14.33;8.57;;;17.90;99.90;;;;;;5096916;28;20672;-79
2023/06/11 03:02:18;;;;;;;11.67;8.57;;;17.80;99.90;;;;;;5098709;28;20252;-80
2023/06/11 03:04:45;;;;;;;14.73;9.77;;;17.70;99.90;;;;;;5102696;28;20202;-80
2023/06/11 03:07:12;;;;;;;11.47;8.87;;;;;;;;;;5098204;28;20211;-79
2023/06/11 03:09:39;;;;;;;12.90;9.13;;;17.90;99.90;;;;;;5097788;28;20729;-80
2023/06/11 03:12:06;;;;;;;13.07;9.90;;;17.70;99.90;;;;;;5103770;28;20634;-81
2023/06/11 03:14:34;;;;;;;13.63;9.80;;;;;;;;;;5102356;28;20243;-79
2023/06/11 03:17:00;;;;;;;14.60;9.23;;;17.50;99.90;;;;;;5099127;28;20679;-80
2023/06/11 03:19:27;;;;;;;14.23;9.80;;;17.50;99.90;;;;;;5083918;28;20256;-80
2023/06/11 03:21:54;;;;;;;13.77;9.57;;;17.50;99.90;;;;;;5099466;28;20641;-79
2023/06/11 03:24:21;;;;;;;13.87;9.70;;;17.40;99.90;;;;;;5103361;28;20718;-81
2023/06/11 03:26:47;;;;;;;11.57;9.53;;;17.40;99.90;;;;;;5099933;28;20211;-80
2023/06/11 03:29:14;;;;;;;12.13;9.03;;;17.40;99.90;;;;;;5096880;28;20204;-81
2023/06/11 03:31:41;;;;;;;15.30;10.20;;;17.30;99.90;;;;;;5096502;28;20253;-80
2023/06/11 03:34:08;;;;;;;13.20;9.47;;;17.30;99.90;;;;;;5098895;28;20204;-79
2023/06/11 03:36:36;;;;;;;14.43;9.97;;;17.30;99.90;;;;;;5099825;28;20616;-81
2023/06/11 03:39:03;;;;;;;13.13;10.53;;;17.30;99.90;;;;;;5097999;28;20632;-81
2023/06/11 03:41:30;;;;;;;15.50;10.03;;;17.30;99.90;;;;;;5083992;28;20223;-79
2023/06/11 03:43:57;;;;;;;12.53;9.13;;;17.30;99.90;;;;;;5095035;28;20276;-79
2023/06/11 03:46:24;;;;;;;13.63;10.40;;;17.30;99.90;;;;;;5097784;28;20581;-80
2023/06/11 03:48:51;;;;;;;12.73;9.70;;;17.30;99.90;;;;;;5082087;28;20208;-80
2023/06/11 03:51:18;;;;;;;13.53;9.47;;;17.30;99.90;;;;;;5082574;28;20249;-83
2023/06/11 03:53:46;;;;;;;13.13;9.83;;;17.30;99.90;;;;;;5098037;28;20649;-80
2023/06/11 03:56:13;;;;;;;18.03;10.07;;;17.30;99.90;;;;;;5101477;28;20203;-80
2023/06/11 03:58:40;;;;;;;11.97;9.33;;;17.30;99.90;;;;;;5097462;28;20294;-79
2023/06/11 04:01:07;;;;;;;12.27;9.70;;;17.30;99.90;;;;;;5101451;28;20658;-80
2023/06/11 04:03:34;;;;;;;16.10;10.30;;;17.40;99.90;;;;;;5078486;28;20203;-80
2023/06/11 04:06:01;;;;;;;13.93;10.43;;;17.30;99.90;;;;;;5105545;28;20294;-79
2023/06/11 04:08:28;;;;;;;14.17;9.40;;;17.30;99.90;;;;;;5081448;28;20200;-78
2023/06/11 04:10:55;;;;;;;14.70;10.30;;;17.40;99.90;;;;;;5106440;28;20199;-79
2023/06/11 04:13:21;;;;;;;15.07;10.30;;;17.40;99.90;;;;;;5086685;28;20215;-80
2023/06/11 04:15:48;;;;;;;12.17;9.73;;;17.40;99.90;;;;;;5097877;28;20770;-80
2023/06/11 04:18:16;;;;;;;13.80;10.37;;;17.40;99.90;;;;;;5101463;28;20210;-80
2023/06/11 04:20:43;;;;;;;12.13;9.57;;;17.50;99.90;;;;;;5080143;28;20637;-80
2023/06/11 04:23:10;;;;;;;15.63;11.20;;;17.50;99.90;;;;;;5098977;28;20203;-81
2023/06/11 04:25:39;;;;;;;12.43;9.70;;;17.60;99.90;;;;;;5098754;28;20530;-81
2023/06/11 04:28:05;;;;;;;17.40;10.70;;;17.60;99.90;;;;;;5099040;28;20250;-80
2023/06/11 04:30:33;;;;;;;12.63;9.80;;;17.70;99.90;;;;;;5100251;28;20264;-79
2023/06/11 04:33:03;;;;;;;13.03;9.63;;;17.70;99.90;;;;;;5098134;28;20203;-79
2023/06/11 04:35:34;;;;;;;14.33;10.53;;;17.80;99.90;;;;;;5101240;28;20777;-79
2023/06/11 04:38:03;;;;;;;14.33;10.47;;;17.80;99.90;;;;;;5105662;28;20652;-80
2023/06/11 04:40:30;;;;;;;15.83;11.37;;;17.90;99.90;;;;;;5087903;28;20251;-79
2023/06/11 04:42:57;;;;;;;15.07;11.33;;;17.90;99.90;;;;;;5099840;28;20256;-83
2023/06/11 04:45:26;;;;;;;15.32;10.63;;;17.90;99.90;;;;;;5084519;28;20199;-79
2023/06/11 04:47:53;;;;;;;17.67;12.27;;;18.00;99.90;;;;;;5102378;28;20220;-80
2023/06/11 04:50:20;;;;;;;15.07;10.80;;;18.00;99.90;;;;;;5098179;28;20652;-79
2023/06/11 04:52:51;;;;;;;16.90;13.07;;;18.10;99.90;;;;;;5089100;28;20681;-80
2023/06/11 04:55:24;;;;;;;13.98;10.90;;;18.10;99.90;;;;;;5086254;28;20210;-79
2023/06/11 04:57:54;;;;;;;15.52;12.23;;;18.20;99.90;;;;;;5083310;28;20238;-82
2023/06/11 05:00:22;;;;;;;18.27;12.83;;;18.20;99.90;;;;;;5104210;28;20282;-79
2023/06/11 05:02:49;;;;;;;17.23;13.05;;;18.20;99.90;;;;;;5101342;28;20292;-80
2023/06/11 05:05:16;;;;;;;17.55;12.65;;;18.30;99.90;;;;;;5109922;28;20655;-78
2023/06/11 05:07:43;;;;;;;17.70;12.97;;;18.40;99.90;;;;;;5082784;28;20207;-79
2023/06/11 05:10:10;;;;;;;18.27;13.00;;;18.50;99.90;;;;;;5107849;28;20215;-81
2023/06/11 05:12:37;;;;;;;17.30;12.85;;;18.60;99.90;;;;;;5100236;28;20307;-81
2023/06/11 05:15:04;;;;;;;19.50;12.98;;;18.70;99.90;;;;;;5103110;28;20211;-80
2023/06/11 05:17:32;;;;;;;18.52;13.57;;;18.70;99.90;;;;;;5082938;28;20224;-77
2023/06/11 05:19:59;;;;;;;16.38;12.27;;;18.80;99.90;;;;;;5085026;28;20607;-79
2023/06/11 05:22:26;;;;;;;16.75;12.85;;;18.90;99.90;;;;;;5100363;28;20218;-78
2023/06/11 05:24:53;;;;;;;15.35;12.18;;;19.10;99.90;;;;;;5096911;28;20202;-78
2023/06/11 05:27:21;;;;;;;15.38;12.00;;;19.70;99.90;;;;;;5101782;28;20248;-79
2023/06/11 05:29:47;;;;;;;15.30;12.02;;;20.70;99.90;;;;;;5081161;28;20676;-82
2023/06/11 05:32:14;;;;;;;15.73;11.10;;;21.90;99.90;;;;;;5101950;28;20677;-80
2023/06/11 05:34:43;;;;;;;12.63;10.88;;;23.10;99.90;;;;;;5086223;28;20625;-78
2023/06/11 05:37:10;;;;;;;12.05;10.68;;;24.60;99.90;;;;;;5085010;28;20204;-80
2023/06/11 05:39:36;;;;;;;11.50;10.10;;;25.70;99.90;;;;;;5100249;28;20204;-79
2023/06/11 05:42:04;;;;;;;12.23;10.65;;;26.70;99.90;;;;;;5104181;28;20306;-78
2023/06/11 05:44:30;;;;;;;11.93;10.52;;;27.50;99.90;;;;;;5099852;28;20214;-79
2023/06/11 05:46:57;;;;;;;29.85;17.85;;;28.20;99.90;;;;;;5100960;28;20211;-79
2023/06/11 05:49:24;;;;;;;20.75;14.77;;;28.90;99.90;;;;;;5089196;28;20207;-79
2023/06/11 05:51:51;;;;;;;16.98;13.60;;;29.20;99.90;;;;;;5104855;28;20192;-79
2023/06/11 05:54:18;;;;;;;11.57;10.38;;;29.60;99.90;;;;;;5103947;28;20211;-79
2023/06/11 05:56:45;;;;;;;21.25;14.48;;;30.00;99.90;;;;;;5109316;28;20617;-79
2023/06/11 05:59:12;;;;;;;25.55;17.30;;;30.50;99.90;;;;;;5108544;28;20199;-80
2023/06/11 06:01:44;;;;;;;12.80;11.02;;;31.10;99.90;;;;;;5100141;28;20714;-80
2023/06/11 06:04:13;;;;;;;14.63;12.00;;;31.70;99.90;;;;;;5108076;28;20515;-81
2023/06/11 06:06:40;;;;;;;10.68;8.70;;;32.10;99.20;;;;;;5109333;28;20195;-80
2023/06/11 06:09:07;;;;;;;9.45;8.45;;;32.30;97.40;;;;;;5103305;28;20261;-78
2023/06/11 06:11:34;;;;;;;9.48;8.48;;;32.50;96.10;;;;;;5101300;28;20562;-80
2023/06/11 06:14:02;;;;;;;8.35;7.45;;;32.70;95.50;;;;;;5104188;28;20576;-80
2023/06/11 06:16:31;;;;;;;8.25;7.40;;;32.90;94.40;;;;;;5100749;28;20219;-79
2023/06/11 06:18:58;;;;;;;10.32;8.60;;;32.90;93.70;;;;;;5102631;28;20221;-80
2023/06/11 06:21:25;;;;;;;9.07;8.13;;;32.90;93.50;;;;;;5103174;28;20254;-79
2023/06/11 06:23:52;;;;;;;8.90;8.00;;;33.10;92.80;;;;;;5090374;28;20226;-81
2023/06/11 06:26:20;;;;;;;9.10;8.20;;;33.20;92.60;;;;;;5105678;28;20198;-78
2023/06/11 06:28:47;;;;;;;9.82;8.23;;;33.30;92.20;;;;;;5101849;28;20336;-80
2023/06/11 06:31:14;;;;;;;9.48;8.43;;;33.30;91.70;;;;;;5099152;28;20767;-80
2023/06/11 06:33:41;;;;;;;9.35;8.25;;;33.40;91.50;;;;;;5104772;28;20251;-80
2023/06/11 06:36:07;;;;;;;9.73;7.75;;;33.40;91.10;;;;;;5099118;28;20199;-79
2023/06/11 06:38:36;;;;;;;8.52;7.72;;;33.30;91.00;;;;;;5101239;28;20709;-78
2023/06/11 06:41:03;;;;;;;9.40;8.05;;;33.40;90.80;;;;;;5099752;28;20227;-80
2023/06/11 06:43:30;;;;;;;9.23;7.38;;;33.40;90.50;;;;;;5096348;28;20211;-79
2023/06/11 06:45:57;;;;;;;9.20;8.18;;;33.50;90.40;;;;;;5101757;28;20288;-81
2023/06/11 06:48:24;;;;;;;9.43;8.38;;;33.60;90.10;;;;;;5098361;28;20207;-80
2023/06/11 06:50:51;;;;;;;9.15;8.23;;;33.70;90.10;;;;;;5096004;28;20306;-79
2023/06/11 06:53:18;;;;;;;10.68;8.13;;;33.80;89.80;;;;;;5101946;28;20282;-78
2023/06/11 06:55:45;;;;;;;7.97;7.18;;;33.90;89.10;;;;;;5107207;28;20207;-79
2023/06/11 06:58:12;;;;;;;8.18;7.38;;;33.90;88.60;;;;;;5103864;28;20203;-80
2023/06/11 07:00:39;;;;;;;8.77;7.82;;;34.00;88.50;;;;;;5092538;28;20203;-82
2023/06/11 07:03:06;;;;;;;8.18;7.43;;;34.00;88.20;;;;;;5109238;28;20218;-79
2023/06/11 07:05:33;;;;;;;7.93;7.13;;;34.10;87.60;;;;;;5103333;28;20213;-80
2023/06/11 07:08:00;;;;;;;8.93;7.78;;;34.00;87.80;;;;;;5088609;28;20209;-80
2023/06/11 07:10:27;;;;;;;8.35;7.18;;;33.90;88.20;;;;;;5100637;28;20252;-81
2023/06/11 07:12:54;;;;;;;9.35;7.20;;;34.10;87.70;;;;;;5098027;28;20230;-77
2023/06/11 07:15:26;;;;;;;10.30;7.60;;;34.30;87.30;;;;;;5105935;28;20199;-81
2023/06/11 07:17:52;;;;;;;8.30;7.50;;;34.50;86.70;;;;;;5100544;28;20579;-82
2023/06/11 07:20:20;;;;;;;9.43;7.03;;;34.60;86.70;;;;;;5096733;28;20213;-79
2023/06/11 07:22:46;;;;;;;7.32;6.47;;;34.70;86.20;;;;;;5099858;28;20681;-81
2023/06/11 07:25:13;;;;;;;8.50;7.00;;;34.90;85.60;;;;;;5100413;28;20191;-82
2023/06/11 07:27:41;;;;;;;7.82;7.07;;;34.90;84.90;;;;;;5097155;28;20207;-81
2023/06/11 07:30:09;;;;;;;8.15;7.35;;;34.90;84.90;;;;;;5106682;28;20651;-80
2023/06/11 07:32:36;;;;;;;8.05;6.90;;;34.90;84.50;;;;;;5099829;28;20227;-79
2023/06/11 07:35:04;;;;;;;7.50;6.60;;;34.90;84.50;;;;;;5092048;28;20718;-79
2023/06/11 07:37:32;;;;;;;7.88;7.18;;;35.00;83.90;;;;;;5083432;28;20203;-77
2023/06/11 07:39:58;;;;;;;7.97;7.18;;;35.10;83.50;;;;;;5097317;28;20597;-77
2023/06/11 07:42:26;;;;;;;8.88;7.43;;;35.00;83.80;;;;;;5105651;28;20597;-78
2023/06/11 07:44:53;;;;;;;9.45;6.80;;;35.10;83.50;;;;;;5078954;28;20230;-76
2023/06/11 07:47:21;;;;;;;7.40;6.70;;;34.90;82.40;;;;;;5095324;28;20580;-78
2023/06/11 07:49:48;;;;;;;8.10;7.30;;;34.90;82.60;;;;;;5102561;28;20230;-76
2023/06/11 07:52:15;;;;;;;7.75;7.00;;;34.90;82.20;;;;;;5104447;28;20714;-76
2023/06/11 07:54:42;;;;;;;7.95;6.50;;;34.80;82.80;;;;;;5099855;28;20206;-76
2023/06/11 07:57:12;;;;;;;7.75;7.05;;;34.90;82.50;;;;;;5103346;28;20570;-77
2023/06/11 07:59:42;;;;;;;7.20;6.50;;;35.00;82.40;;;;;;5105745;28;20255;-76
2023/06/11 08:02:10;;;;;;;7.82;7.03;;;35.10;82.10;;;;;;5103298;28;20235;-79
2023/06/11 08:04:37;;;;;;;8.60;6.95;;;35.10;81.90;;;;;;5111256;28;20286;-77
2023/06/11 08:07:05;;;;;;;8.77;7.13;;;35.10;81.90;;;;;;5114218;28;20207;-76
2023/06/11 08:09:34;;;;;;;9.38;6.80;;;35.00;82.30;;;;;;5105999;28;20280;-78
2023/06/11 08:12:06;;;;;;;7.07;6.38;;;35.10;82.30;;;;;;5123280;27;20234;-77
2023/06/11 08:14:33;;;;;;;8.00;6.55;;;35.10;82.50;;;;;;5113810;28;20209;-76
2023/06/11 08:17:01;;;;;;;8.00;7.18;;;35.20;81.70;;;;;;5105443;28;20241;-77
2023/06/11 08:19:28;;;;;;;8.25;7.15;;;35.30;80.80;;;;;;5099437;28;20325;-76
2023/06/11 08:21:55;;;;;;;7.75;6.95;;;35.20;80.80;;;;;;5105951;28;20733;-77
2023/06/11 08:24:22;;;;;;;7.78;7.03;;;35.10;80.80;;;;;;5101532;28;20205;-78
2023/06/11 08:26:49;;;;;;;8.40;6.88;;;35.00;81.50;;;;;;5108263;28;20201;-79
2023/06/11 08:29:16;;;;;;;8.55;6.68;;;34.70;80.90;;;;;;5107231;28;20217;-78
2023/06/11 08:31:43;;;;;;;8.13;6.95;;;34.60;81.20;;;;;;5089615;28;20726;-77
2023/06/11 08:34:10;;;;;;;8.35;6.78;;;34.60;81.20;;;;;;5094112;28;20285;-76
2023/06/11 08:36:40;;;;;;;8.50;7.57;;;34.60;81.50;;;;;;5105912;28;20606;-78
2023/06/11 08:39:07;;;;;;;7.93;6.82;;;34.70;81.60;;;;;;5110716;28;20255;-82
2023/06/11 08:41:35;;;;;;;8.30;6.95;;;34.70;81.30;;;;;;5104011;28;20219;-79
2023/06/11 08:44:02;;;;;;;7.97;6.85;;;34.70;81.40;;;;;;5100903;28;20203;-78
2023/06/11 08:46:35;;;;;;;7.35;6.65;;;34.60;80.60;;;;;;5101795;28;20639;-77
2023/06/11 08:49:07;;;;;;;10.27;6.53;;;34.40;81.00;;;;;;5101780;28;20227;-78
2023/06/11 08:51:37;;;;;;;7.70;7.00;;;34.40;80.60;;;;;;5105990;28;20986;-77
2023/06/11 08:54:09;;;;;;;9.55;6.80;;;34.30;80.60;;;;;;5106808;28;20196;-76
2023/06/11 08:56:36;;;;;;;7.25;6.57;;;34.20;80.80;;;;;;5105218;28;20202;-77
2023/06/11 08:59:03;;;;;;;7.50;6.80;;;34.00;80.70;;;;;;5114175;28;20199;-76
2023/06/11 09:01:31;;;;;;;8.23;6.85;;;33.90;80.60;;;;;;5107198;28;20277;-77
2023/06/11 09:03:59;;;;;;;8.90;7.97;;;33.90;81.00;;;;;;5094004;28;20622;-78
2023/06/11 09:06:27;;;;;;;8.95;8.05;;;34.00;81.40;;;;;;5107152;28;20188;-77
2023/06/11 09:09:00;;;;;;;9.38;7.00;;;34.00;81.10;;;;;;5089496;28;20290;-78
2023/06/11 09:11:38;;;;;;;8.32;7.53;;;34.00;80.90;;;;;;5103626;28;20620;-78
2023/06/11 09:14:06;;;;;;;9.27;7.15;;;34.00;81.10;;;;;;5081504;28;20265;-79
2023/06/11 09:16:47;;;;;;;10.88;6.95;;;33.90;81.50;;;;;;5079415;28;20299;-78
2023/06/11 09:19:19;;;;;;;8.55;7.05;;;34.10;81.70;;;;;;5087115;28;20676;-78
2023/06/11 09:21:50;;;;;;;8.95;7.97;;;34.20;81.70;;;;;;5085247;28;20217;-76
2023/06/11 09:24:21;;;;;;;8.15;7.35;;;34.20;81.40;;;;;;5082125;28;20242;-81
2023/06/11 09:26:58;;;;;;;7.07;6.40;;;34.30;81.70;;;;;;5091129;28;20234;-80
2023/06/11 09:29:27;;;;;;;7.95;7.07;;;34.20;80.80;;;;;;5086014;28;20243;-79
2023/06/11 09:32:05;;;;;;;6.93;6.32;;;34.20;81.30;;;;;;5081736;28;20321;-81
2023/06/11 09:34:54;;;;;;;7.05;6.35;;;34.30;81.10;;;;;;5087892;28;20212;-77
2023/06/11 09:37:21;;;;;;;7.90;7.10;;;34.10;80.50;;;;;;5089003;28;20204;-79
2023/06/11 09:39:48;;;;;;;7.45;6.72;;;33.90;80.50;;;;;;5084242;28;20271;-80
2023/06/11 09:42:26;;;;;;;7.75;6.95;;;33.80;81.70;;;;;;5068343;28;20271;-77
2023/06/11 09:44:58;;;;;;;7.30;6.63;;;33.80;82.30;;;;;;5080751;28;20197;-79
2023/06/11 09:47:28;;;;;;;8.30;6.72;;;33.80;82.10;;;;;;5078468;28;20208;-79
2023/06/11 09:50:01;;;;;;;7.80;7.10;;;33.80;82.40;;;;;;5064896;28;20207;-79
2023/06/11 09:52:28;;;;;;;9.80;7.18;;;33.80;81.80;;;;;;5051791;28;20205;-78
2023/06/11 09:54:56;;;;;;;6.90;6.30;;;33.80;81.60;;;;;;5085654;28;20365;-78
2023/06/11 09:57:24;;;;;;;8.52;7.65;;;33.80;81.60;;;;;;5083618;28;20220;-77
2023/06/11 09:59:51;;;;;;;7.75;6.95;;;33.80;81.10;;;;;;5077592;28;20204;-77
2023/06/11 10:02:18;;;;;;;7.10;6.32;;;33.90;81.00;;;;;;5078304;28;20302;-78
2023/06/11 10:04:45;;;;;;;6.45;5.85;;;33.80;80.20;;;;;;5079463;28;20218;-77
2023/06/11 10:07:14;;;;;;;9.88;6.00;;;33.80;79.90;;;;;;5082539;28;20232;-75
2023/06/11 10:09:43;;;;;;;6.32;5.82;;;33.70;79.80;;;;;;5081620;28;20640;-77
2023/06/11 10:12:10;;;;;;;7.55;6.57;;;33.50;79.60;;;;;;5083209;28;20588;-76
2023/06/11 10:14:39;;;;;;;6.47;5.88;;;33.50;80.40;;;;;;5088598;28;20235;-77
2023/06/11 10:17:10;;;;;;;6.60;5.93;;;33.40;80.40;;;;;;5084999;28;20225;-76
2023/06/11 10:19:37;;;;;;;7.40;6.70;;;33.40;79.20;;;;;;5062953;28;20200;-78
2023/06/11 10:22:04;;;;;;;8.63;6.50;;;33.30;78.40;;;;;;5060166;28;21079;-75
2023/06/11 10:24:31;;;;;;;6.70;6.00;;;33.10;78.10;;;;;;5080365;28;20714;-74
2023/06/11 10:27:10;;;;;;;6.38;5.78;;;33.00;78.50;;;;;;5082995;28;20196;-79
2023/06/11 10:29:48;;;;;;;6.78;6.07;;;33.00;79.40;;;;;;5071779;28;20238;-78
2023/06/11 10:32:20;;;;;;;6.32;5.70;;;33.10;79.00;;;;;;5073638;28;20303;-81
2023/06/11 10:34:54;;;;;;;6.25;5.65;;;33.20;78.00;;;;;;5077827;28;20207;-78
2023/06/11 10:37:37;;;;;;;6.03;5.43;;;33.20;76.60;;;;;;5085194;28;20672;-79
2023/06/11 10:40:08;;;;;;;6.05;5.07;;;33.20;76.40;;;;;;5079554;28;20628;-79
2023/06/11 10:42:40;;;;;;;5.82;4.97;;;33.20;76.70;;;;;;5077821;28;20246;-80
2023/06/11 10:45:12;;;;;;;5.47;4.97;;;33.20;74.70;;;;;;5082670;28;20689;-79
2023/06/11 10:47:43;;;;;;;5.00;4.60;;;33.20;74.70;;;;;;5076422;28;20228;-76
2023/06/11 10:50:13;;;;;;;4.88;4.38;;;33.20;74.10;;;;;;5087295;28;20204;-76
2023/06/11 10:52:57;;;;;;;5.43;4.93;;;33.20;73.50;;;;;;5081415;28;20561;-75
2023/06/11 10:55:29;;;;;;;6.80;5.43;;;33.10;72.40;;;;;;5084363;28;20219;-79
2023/06/11 10:58:00;;;;;;;6.85;5.15;;;33.00;72.40;;;;;;5071001;28;20660;-75
2023/06/11 11:00:32;;;;;;;5.65;5.15;;;32.90;72.10;;;;;;5086854;28;20199;-76
2023/06/11 11:03:01;;;;;;;5.20;4.70;;;32.80;72.00;;;;;;5078739;28;20228;-76
2023/06/11 11:05:28;;;;;;;5.90;5.18;;;32.70;72.70;;;;;;5083308;28;20668;-78
2023/06/11 11:07:55;;;;;;;5.20;4.70;;;32.80;72.80;;;;;;5099864;28;20204;-78
2023/06/11 11:10:26;;;;;;;5.45;4.88;;;32.90;72.60;;;;;;5078613;28;20212;-77
2023/06/11 11:12:54;;;;;;;5.13;4.25;;;32.80;72.70;;;;;;5079179;28;20631;-76
2023/06/11 11:15:21;;;;;;;4.80;4.30;;;32.80;71.90;;;;;;5083833;28;20211;-76
2023/06/11 11:17:50;;;;;;;6.38;4.70;;;32.80;71.80;;;;;;5074322;28;20258;-81
2023/06/11 11:20:19;;;;;;;5.55;5.05;;;32.70;71.40;;;;;;5081165;28;20196;-81
2023/06/11 11:22:57;;;;;;;6.47;4.97;;;32.70;71.80;;;;;;5081540;28;20625;-77
2023/06/11 11:25:30;;;;;;;7.88;4.93;;;32.70;71.90;;;;;;5063425;28;20249;-78
2023/06/11 11:27:57;;;;;;;5.20;4.70;;;32.70;71.20;;;;;;5085507;28;20204;-78
2023/06/11 11:30:28;;;;;;;6.22;5.47;;;32.70;70.60;;;;;;5083435;28;20212;-78
2023/06/11 11:32:56;;;;;;;7.82;7.07;;;32.70;70.80;;;;;;5078819;28;20221;-78
2023/06/11 11:35:25;;;;;;;6.40;5.55;;;32.70;71.20;;;;;;5087203;28;20236;-78
2023/06/11 11:37:54;;;;;;;8.18;5.25;;;32.80;71.60;;;;;;5090108;28;20626;-78
2023/06/11 11:40:22;;;;;;;7.88;6.32;;;32.90;71.00;;;;;;5069017;28;20550;-77
2023/06/11 11:42:49;;;;;;;41.38;22.90;;;32.90;70.30;;;;;;5079670;28;20228;-77
2023/06/11 11:45:17;;;;;;;6.85;6.15;;;32.90;69.50;;;;;;5084906;28;20203;-77
2023/06/11 11:47:51;;;;;;;5.85;5.25;;;33.00;69.30;;;;;;5080952;28;20236;-78
2023/06/11 11:50:27;;;;;;;6.43;5.53;;;33.00;67.90;;;;;;5098621;28;20203;-78
2023/06/11 11:53:05;;;;;;;6.63;5.93;;;33.10;68.50;;;;;;5081718;28;20218;-77
2023/06/11 11:55:35;;;;;;;6.65;5.38;;;33.20;69.10;;;;;;5085271;28;20212;-75
2023/06/11 11:58:22;;;;;;;5.97;5.35;;;33.30;69.10;;;;;;5081630;28;20208;-76
2023/06/11 12:00:58;;;;;;;6.20;5.60;;;33.30;69.00;;;;;;5083615;28;20261;-78
2023/06/11 12:03:26;;;;;;;6.13;5.53;;;33.30;69.40;;;;;;5085296;28;20242;-77
2023/06/11 12:05:58;;;;;;;6.57;5.78;;;33.20;69.20;;;;;;5085792;28;20188;-77
2023/06/11 12:08:29;;;;;;;6.75;5.32;;;33.30;69.30;;;;;;5088810;28;20583;-77
2023/06/11 12:10:59;;;;;;;5.50;5.00;;;33.40;69.30;;;;;;5082120;28;20208;-77
2023/06/11 12:13:27;;;;;;;6.55;5.20;;;33.40;69.70;;;;;;5082527;28;20235;-80
2023/06/11 12:15:54;;;;;;;6.10;5.50;;;33.40;69.90;;;;;;5066965;28;20224;-77
2023/06/11 12:18:21;;;;;;;6.18;5.63;;;33.60;70.00;;;;;;5073342;28;20199;-76
2023/06/11 12:20:48;;;;;;;6.10;4.63;;;33.70;69.70;;;;;;5062777;28;20282;-79
2023/06/11 12:23:14;;;;;;;6.20;5.60;;;33.70;67.90;;;;;;5090510;28;20262;-77
2023/06/11 12:25:45;;;;;;;6.25;5.63;;;33.70;68.20;;;;;;5078599;28;20227;-78
2023/06/11 12:28:12;;;;;;;6.05;5.25;;;33.50;68.80;;;;;;5085895;28;20239;-77
2023/06/11 12:30:41;;;;;;;7.32;6.43;;;33.40;68.80;;;;;;5086911;28;20208;-80
2023/06/11 12:33:08;;;;;;;6.70;6.03;;;33.30;69.20;;;;;;5084362;28;20250;-79
2023/06/11 12:35:36;;;;;;;6.75;5.55;;;33.30;69.10;;;;;;5070228;28;20206;-80
2023/06/11 12:38:03;;;;;;;6.75;6.13;;;33.40;68.80;;;;;;5080228;28;20310;-78
2023/06/11 12:40:31;;;;;;;6.88;5.95;;;33.40;68.50;;;;;;5074808;28;20671;-78
2023/06/11 12:42:59;;;;;;;5.65;5.15;;;33.40;69.20;;;;;;5079165;28;20233;-79
2023/06/11 12:45:30;;;;;;;5.55;5.05;;;33.40;68.90;;;;;;5078038;28;20597;-75
2023/06/11 12:47:57;;;;;;;6.15;5.55;;;33.50;69.00;;;;;;5064433;28;20697;-78